Time;durP1;ratioP1;P1;durP2;ratioP2;P2;SDS_P1;SDS_P2;PMS_P1;PMS_P2;Temp;Humidity;BMP_temperature;BMP_pressure;BME280_temperature;BME280_humidity;BME280_pressure;Samples;Min_cycle;Max_cycle;Signal;HPM_P1;HPM_P2
2022/05/03 00:00:11;;;;;;;;;;;13.10;71.30;;;;;;5087475;28;19913;-70
2022/05/03 00:02:52;;;;;;;;;;;13.10;71.30;;;;;;5077034;28;19920;-69
2022/05/03 00:05:31;;;;;;;;;;;13.00;71.40;;;;;;5076270;28;19913;-69
2022/05/03 00:08:03;;;;;;;;;;;13.00;71.30;;;;;;5078070;28;20041;-69
2022/05/03 00:10:37;;;;;;;;;;;12.90;71.30;;;;;;5075978;28;20333;-69
2022/05/03 00:13:05;;;;;;;;;;;12.90;71.40;;;;;;5073197;28;19916;-69
2022/05/03 00:15:32;;;;;;;;;;;12.90;71.60;;;;;;5073731;28;19924;-69
2022/05/03 00:17:57;;;;;;;;;;;12.90;71.70;;;;;;5075200;28;20373;-69
2022/05/03 00:20:23;;;;;;;;;;;12.80;71.70;;;;;;5074234;28;20015;-69
2022/05/03 00:22:49;;;;;;;;;;;12.80;71.80;;;;;;5076452;28;19965;-69
2022/05/03 00:25:15;;;;;;;;;;;12.80;71.70;;;;;;5085997;27;19962;-69
2022/05/03 00:27:41;;;;;;;;;;;12.80;71.80;;;;;;5076523;28;19916;-69
2022/05/03 00:30:06;;;;;;;;;;;12.70;71.70;;;;;;5077859;28;19916;-69
2022/05/03 00:32:34;;;;;;;;;;;12.70;71.90;;;;;;5078224;28;20283;-69
2022/05/03 00:34:59;;;;;;;;;;;12.70;72.00;;;;;;5078964;28;20361;-69
2022/05/03 00:37:25;;;;;;;;;;;12.60;71.90;;;;;;5077263;28;19974;-69
2022/05/03 00:39:50;;;;;;;;;;;12.60;72.10;;;;;;5076589;28;19913;-69
2022/05/03 00:42:20;;;;;;;;;;;12.60;72.20;;;;;;5086354;28;19920;-69
2022/05/03 00:45:01;;;;;;;;;;;12.60;72.20;;;;;;5076224;28;19916;-69
2022/05/03 00:47:45;;;;;;;;;;;12.50;72.30;;;;;;5075064;28;20103;-69
2022/05/03 00:50:17;;;;;;;;;;;12.50;72.40;;;;;;5076143;28;20308;-69
2022/05/03 00:53:06;;;;;;;;;;;12.50;72.20;;;;;;5074298;28;20550;-69
2022/05/03 00:55:38;;;;;;;;;;;12.50;72.50;;;;;;5081397;28;19920;-69
2022/05/03 00:58:06;;;;;;;;;;;12.40;72.50;;;;;;5077183;28;19924;-69
2022/05/03 01:00:34;;;;;;;;;;;12.40;72.50;;;;;;5070574;28;19977;-69
2022/05/03 01:03:29;;;;;;;;;;;12.40;72.50;;;;;;5077246;28;19948;-69
2022/05/03 01:06:06;;;;;;;;;;;12.40;72.50;;;;;;5063594;28;19916;-70
2022/05/03 01:08:46;;;;;;;;;;;12.30;72.70;;;;;;5074876;28;19913;-69
2022/05/03 01:11:30;;;;;;;;;;;12.30;72.70;;;;;;5085914;28;19939;-70
2022/05/03 01:14:07;;;;;;;;;;;12.30;72.60;;;;;;5076614;28;19932;-69
2022/05/03 01:16:40;;;;;;;;;;;12.30;72.70;;;;;;5082907;28;19981;-69
2022/05/03 01:19:29;;;;;;;;;;;12.20;72.80;;;;;;5075430;28;20348;-69
2022/05/03 01:22:07;;;;;;;;;;;12.20;72.80;;;;;;5082228;28;19955;-69
2022/05/03 01:24:51;;;;;;;;;;;12.20;72.70;;;;;;5073648;28;20253;-69
2022/05/03 01:27:25;;;;;;;;;;;12.20;72.80;;;;;;5078378;28;19928;-69
2022/05/03 01:29:51;;;;;;;;;;;12.10;72.90;;;;;;5080284;28;19919;-69
2022/05/03 01:32:21;;;;;;;;;;;12.10;73.00;;;;;;5076389;28;19916;-69
2022/05/03 01:34:47;;;;;;;;;;;12.10;72.90;;;;;;5077179;28;19915;-69
2022/05/03 01:37:12;;;;;;;;;;;12.10;73.10;;;;;;5072490;28;20427;-69
2022/05/03 01:39:38;;;;;;;;;;;12.10;73.30;;;;;;5078687;28;19917;-69
2022/05/03 01:42:09;;;;;;;;;;;12.00;73.20;;;;;;5082421;28;20402;-69
2022/05/03 01:44:34;;;;;;;;;;;12.00;73.30;;;;;;5072921;28;19908;-69
2022/05/03 01:47:08;;;;;;;;;;;12.00;73.30;;;;;;5069995;28;20481;-69
2022/05/03 01:52:37;;;;;;;;;;;11.90;73.20;;;;;;5075665;28;19918;-69
2022/05/03 01:55:05;;;;;;;;;;;11.90;73.40;;;;;;5082957;28;19951;-69
2022/05/03 01:57:33;;;;;;;;;;;11.80;73.40;;;;;;5078985;28;20459;-69
2022/05/03 02:00:06;;;;;;;;;;;11.90;73.50;;;;;;5084982;28;19912;-69
2022/05/03 02:02:50;;;;;;;;;;;11.90;73.40;;;;;;5071211;28;19927;-69
2022/05/03 02:05:20;;;;;;;;;;;11.80;73.50;;;;;;5075810;28;20341;-70
2022/05/03 02:07:49;;;;;;;;;;;11.80;73.50;;;;;;5071681;28;20322;-69
2022/05/03 02:10:18;;;;;;;;;;;11.80;73.60;;;;;;5077283;28;19908;-69
2022/05/03 02:12:46;;;;;;;;;;;11.70;73.60;;;;;;5079750;28;20226;-69
2022/05/03 02:15:13;;;;;;;;;;;11.70;73.50;;;;;;5072526;28;19920;-69
2022/05/03 02:17:44;;;;;;;;;;;11.70;73.60;;;;;;5075155;28;20070;-70
2022/05/03 02:20:20;;;;;;;;;;;11.70;73.60;;;;;;5073788;28;19933;-69
2022/05/03 02:22:46;;;;;;;;;;;11.70;73.70;;;;;;5065085;28;20281;-69
2022/05/03 02:25:11;;;;;;;;;;;11.70;73.80;;;;;;5082250;28;19912;-69
2022/05/03 02:27:39;;;;;;;;;;;11.60;73.90;;;;;;5069742;28;20387;-69
2022/05/03 02:30:04;;;;;;;;;;;11.60;73.90;;;;;;5080797;28;19916;-69
2022/05/03 02:32:30;;;;;;;;;;;11.60;73.80;;;;;;5071807;28;19919;-69
2022/05/03 02:35:01;;;;;;;;;;;11.60;73.90;;;;;;5088541;28;19921;-69
2022/05/03 02:37:46;;;;;;;;;;;11.50;73.90;;;;;;5080521;28;19908;-69
2022/05/03 02:40:15;;;;;;;;;;;11.50;73.90;;;;;;5083083;28;19916;-69
2022/05/03 02:42:40;;;;;;;;;;;11.50;74.00;;;;;;5073271;28;19916;-69
2022/05/03 02:45:07;;;;;;;;;;;11.50;74.00;;;;;;5077095;28;19989;-69
2022/05/03 02:47:51;;;;;;;;;;;11.50;73.90;;;;;;5071395;28;19923;-69
2022/05/03 02:50:21;;;;;;;;;;;11.50;74.10;;;;;;5073388;28;20304;-69
2022/05/03 02:53:05;;;;;;;;;;;11.40;74.00;;;;;;5071688;28;19965;-69
2022/05/03 02:55:49;;;;;;;;;;;11.40;74.20;;;;;;5071359;28;19980;-69
2022/05/03 02:58:44;;;;;;;;;;;11.40;74.30;;;;;;5068542;28;19983;-69
2022/05/03 03:04:16;;;;;;;;;;;11.30;74.30;;;;;;5074822;28;19919;-69
2022/05/03 03:06:42;;;;;;;;;;;11.30;74.40;;;;;;5077423;28;19917;-69
2022/05/03 03:09:08;;;;;;;;;;;11.30;74.40;;;;;;5075976;28;19912;-69
2022/05/03 03:11:39;;;;;;;;;;;11.30;74.40;;;;;;5076798;28;20619;-69
2022/05/03 03:14:08;;;;;;;;;;;11.30;74.40;;;;;;5080420;28;19957;-69
2022/05/03 03:16:34;;;;;;;;;;;11.20;74.40;;;;;;5082282;28;19966;-69
2022/05/03 03:19:07;;;;;;;;;;;11.20;74.50;;;;;;5080390;28;19956;-69
2022/05/03 03:21:34;;;;;;;;;;;11.20;74.50;;;;;;5083487;28;19931;-69
2022/05/03 03:24:01;;;;;;;;;;;11.20;74.50;;;;;;5076789;28;20011;-69
2022/05/03 03:26:29;;;;;;;;;;;11.20;74.60;;;;;;5079444;28;19916;-69
2022/05/03 03:28:55;;;;;;;;;;;11.20;74.60;;;;;;5076828;28;19912;-69
2022/05/03 03:31:21;;;;;;;;;;;11.10;74.60;;;;;;5076294;28;19922;-69
2022/05/03 03:33:47;;;;;;;;;;;11.10;74.70;;;;;;5081116;28;19947;-69
2022/05/03 03:36:13;;;;;;;;;;;11.10;74.70;;;;;;5079810;28;19922;-69
2022/05/03 03:38:40;;;;;;;;;;;11.10;74.70;;;;;;5074853;28;20011;-69
2022/05/03 03:41:06;;;;;;;;;;;11.00;74.80;;;;;;5077002;28;19978;-69
2022/05/03 03:43:31;;;;;;;;;;;11.00;74.70;;;;;;5079960;28;19930;-69
2022/05/03 03:45:57;;;;;;;;;;;11.00;74.70;;;;;;5080240;28;19916;-69
2022/05/03 03:48:23;;;;;;;;;;;11.00;74.60;;;;;;5076217;28;19913;-69
2022/05/03 03:50:49;;;;;;;;;;;11.00;74.80;;;;;;5076905;28;20011;-69
2022/05/03 03:53:17;;;;;;;;;;;11.00;74.70;;;;;;5080283;28;20139;-69
2022/05/03 03:55:44;;;;;;;;;;;11.00;74.80;;;;;;5073148;28;19912;-69
2022/05/03 03:58:09;;;;;;;;;;;11.00;74.80;;;;;;5079541;28;19938;-69
2022/05/03 04:00:35;;;;;;;;;;;10.90;74.70;;;;;;5083304;28;19916;-69
2022/05/03 04:03:00;;;;;;;;;;;10.90;74.70;;;;;;5083752;28;19964;-69
2022/05/03 04:05:27;;;;;;;;;;;10.90;74.60;;;;;;5076880;28;19927;-69
2022/05/03 04:07:52;;;;;;;;;;;10.90;74.80;;;;;;5079444;28;20368;-69
2022/05/03 04:10:18;;;;;;;;;;;10.90;74.70;;;;;;5071770;28;19923;-69
2022/05/03 04:12:44;;;;;;;;;;;10.90;74.60;;;;;;5074833;28;20410;-69
2022/05/03 04:15:09;;;;;;;;;;;10.80;74.70;;;;;;5081477;28;19920;-69
2022/05/03 04:17:35;;;;;;;;;;;10.80;74.60;;;;;;5086250;28;19913;-69
2022/05/03 04:20:00;;;;;;;;;;;10.80;74.70;;;;;;5081472;28;20007;-69
2022/05/03 04:22:30;;;;;;;;;;;10.80;74.70;;;;;;5075508;28;19920;-69
2022/05/03 04:24:56;;;;;;;;;;;10.80;74.70;;;;;;5070509;28;19916;-69
2022/05/03 04:27:22;;;;;;;;;;;10.80;74.60;;;;;;5069113;28;19969;-69
2022/05/03 04:29:48;;;;;;;;;;;10.80;74.60;;;;;;5082154;28;19913;-69
2022/05/03 04:32:13;;;;;;;;;;;10.80;74.50;;;;;;5075282;28;20338;-69
2022/05/03 04:34:39;;;;;;;;;;;10.80;74.60;;;;;;5077024;28;19923;-69
2022/05/03 04:37:04;;;;;;;;;;;10.70;74.50;;;;;;5076932;28;20368;-69
2022/05/03 04:39:30;;;;;;;;;;;10.70;74.50;;;;;;5077452;28;19916;-69
2022/05/03 04:41:56;;;;;;;;;;;10.70;74.40;;;;;;5078078;28;19970;-69
2022/05/03 04:44:21;;;;;;;;;;;10.70;74.60;;;;;;5088540;28;19916;-69
2022/05/03 04:46:47;;;;;;;;;;;10.70;74.50;;;;;;5073088;28;19920;-69
2022/05/03 04:49:12;;;;;;;;;;;10.70;74.60;;;;;;5084033;28;19915;-69
2022/05/03 04:51:38;;;;;;;;;;;10.70;74.60;;;;;;5080469;28;19919;-69
2022/05/03 04:54:03;;;;;;;;;;;10.70;74.60;;;;;;5077240;28;20258;-69
2022/05/03 04:56:29;;;;;;;;;;;10.70;74.60;;;;;;5071085;28;20061;-69
2022/05/03 04:58:58;;;;;;;;;;;10.70;74.50;;;;;;5076792;28;19919;-69
2022/05/03 05:01:24;;;;;;;;;;;10.70;74.60;;;;;;5087802;28;19920;-69
2022/05/03 05:03:49;;;;;;;;;;;10.70;74.60;;;;;;5076740;28;20561;-69
2022/05/03 05:06:15;;;;;;;;;;;10.70;74.50;;;;;;5081679;27;20081;-69
2022/05/03 05:08:42;;;;;;;;;;;10.70;74.60;;;;;;5077724;28;20756;-69
2022/05/03 05:11:07;;;;;;;;;;;10.70;74.60;;;;;;5089258;28;20455;-69
2022/05/03 05:13:34;;;;;;;;;;;10.70;74.50;;;;;;5075143;28;19912;-69
2022/05/03 05:15:59;;;;;;;;;;;10.70;74.60;;;;;;5079628;28;19916;-69
2022/05/03 05:18:25;;;;;;;;;;;10.70;74.50;;;;;;5080870;28;20361;-69
2022/05/03 05:20:51;;;;;;;;;;;10.70;74.50;;;;;;5079693;28;19926;-69
2022/05/03 05:23:16;;;;;;;;;;;10.70;74.60;;;;;;5076987;28;20601;-69
2022/05/03 05:25:42;;;;;;;;;;;10.70;74.40;;;;;;5081888;28;20006;-69
2022/05/03 05:28:07;;;;;;;;;;;10.70;74.40;;;;;;5076637;28;20380;-69
2022/05/03 05:30:33;;;;;;;;;;;10.70;74.50;;;;;;5075875;28;19916;-69
2022/05/03 05:32:58;;;;;;;;;;;10.70;74.60;;;;;;5077730;28;19947;-69
2022/05/03 05:35:24;;;;;;;;;;;10.60;74.40;;;;;;5070246;28;19916;-69
2022/05/03 05:37:50;;;;;;;;;;;10.70;74.50;;;;;;5075534;28;19923;-69
2022/05/03 05:40:15;;;;;;;;;;;10.70;74.50;;;;;;5077369;28;19930;-69
2022/05/03 05:42:42;;;;;;;;;;;10.70;74.40;;;;;;5078026;28;20280;-69
2022/05/03 05:45:07;;;;;;;;;;;10.70;74.50;;;;;;5071004;28;19977;-69
2022/05/03 05:47:33;;;;;;;;;;;10.70;74.40;;;;;;5074448;28;19912;-69
2022/05/03 05:49:58;;;;;;;;;;;10.70;74.40;;;;;;5078252;28;19931;-69
2022/05/03 05:55:08;;;;;;;;;;;10.70;74.30;;;;;;5080655;28;19915;-69
2022/05/03 05:57:34;;;;;;;;;;;10.70;74.30;;;;;;5072263;28;19916;-69
2022/05/03 06:00:00;;;;;;;;;;;10.70;74.40;;;;;;5079343;28;19913;-69
2022/05/03 06:02:25;;;;;;;;;;;10.70;74.30;;;;;;5084292;28;19920;-69
2022/05/03 06:04:51;;;;;;;;;;;10.70;74.30;;;;;;5076467;28;20011;-69
2022/05/03 06:07:16;;;;;;;;;;;10.70;74.20;;;;;;5082176;28;20021;-69
2022/05/03 06:09:43;;;;;;;;;;;10.70;74.20;;;;;;5081706;28;19972;-69
2022/05/03 06:12:09;;;;;;;;;;;10.70;74.00;;;;;;5074897;28;19911;-69
2022/05/03 06:14:34;;;;;;;;;;;10.60;74.00;;;;;;5078109;28;19923;-69
2022/05/03 06:17:00;;;;;;;;;;;10.60;74.00;;;;;;5074187;28;19917;-69
2022/05/03 06:19:25;;;;;;;;;;;10.60;74.00;;;;;;5076092;28;20669;-69
2022/05/03 06:21:51;;;;;;;;;;;10.70;74.00;;;;;;5068980;28;19921;-69
2022/05/03 06:24:16;;;;;;;;;;;10.70;73.90;;;;;;5077085;28;20710;-69
2022/05/03 06:26:42;;;;;;;;;;;10.70;73.90;;;;;;5075393;28;19916;-69
2022/05/03 06:29:08;;;;;;;;;;;10.70;73.80;;;;;;5083955;28;19915;-69
2022/05/03 06:31:43;;;;;;;;;;;10.70;73.80;;;;;;5072149;28;19912;-69
2022/05/03 06:34:09;;;;;;;;;;;10.70;73.80;;;;;;5080057;28;19912;-69
2022/05/03 06:36:37;;;;;;;;;;;10.70;73.70;;;;;;5076478;28;19919;-69
2022/05/03 06:39:03;;;;;;;;;;;10.70;73.60;;;;;;5083831;28;19917;-69
2022/05/03 06:41:28;;;;;;;;;;;10.80;73.60;;;;;;5074349;28;20497;-69
2022/05/03 06:43:56;;;;;;;;;;;10.80;73.50;;;;;;5077645;28;19923;-69
2022/05/03 06:46:22;;;;;;;;;;;10.80;73.50;;;;;;5086171;27;20385;-69
2022/05/03 06:48:47;;;;;;;;;;;10.80;73.40;;;;;;5079767;28;20018;-69
2022/05/03 06:51:13;;;;;;;;;;;10.80;73.40;;;;;;5073463;28;20436;-69
2022/05/03 06:53:38;;;;;;;;;;;10.80;73.30;;;;;;5077351;28;19916;-69
2022/05/03 06:56:04;;;;;;;;;;;10.80;73.30;;;;;;5080716;28;19916;-69
2022/05/03 06:58:29;;;;;;;;;;;10.90;73.30;;;;;;5074682;28;19979;-69
2022/05/03 07:00:55;;;;;;;;;;;10.90;73.30;;;;;;5081157;28;19978;-69
2022/05/03 07:03:20;;;;;;;;;;;10.90;73.30;;;;;;5069610;28;19916;-69
2022/05/03 07:05:46;;;;;;;;;;;10.90;73.20;;;;;;5078557;28;19912;-69
2022/05/03 07:08:11;;;;;;;;;;;10.90;73.10;;;;;;5071000;28;19934;-69
2022/05/03 07:10:38;;;;;;;;;;;10.90;73.00;;;;;;5078786;28;19944;-69
2022/05/03 07:13:03;;;;;;;;;;;10.90;72.90;;;;;;5080177;28;20276;-69
2022/05/03 07:15:30;;;;;;;;;;;11.00;72.90;;;;;;5083996;28;19928;-69
2022/05/03 07:23:27;;;;;;;;;;;11.00;72.70;;;;;;5071243;28;19920;-69
2022/05/03 07:25:53;;;;;;;;;;;11.00;72.60;;;;;;5078717;28;19920;-69
2022/05/03 07:28:19;;;;;;;;;;;11.00;72.50;;;;;;5083088;28;19942;-69
2022/05/03 07:30:45;;;;;;;;;;;11.10;72.50;;;;;;5080407;28;19914;-69
2022/05/03 07:33:10;;;;;;;;;;;11.10;72.40;;;;;;5082903;28;19919;-69
2022/05/03 07:35:36;;;;;;;;;;;11.10;72.30;;;;;;5077995;28;19966;-69
2022/05/03 07:38:01;;;;;;;;;;;11.10;72.20;;;;;;5080943;28;19920;-69
2022/05/03 07:40:28;;;;;;;;;;;11.20;72.20;;;;;;5075630;28;20396;-69
2022/05/03 07:42:53;;;;;;;;;;;11.20;72.10;;;;;;5073350;28;19909;-69
2022/05/03 07:45:19;;;;;;;;;;;11.20;72.10;;;;;;5080415;28;20003;-69
2022/05/03 07:47:44;;;;;;;;;;;11.20;72.00;;;;;;5086138;28;20306;-69
2022/05/03 07:50:10;;;;;;;;;;;11.20;71.90;;;;;;5079235;28;20625;-69
2022/05/03 07:52:36;;;;;;;;;;;11.30;71.90;;;;;;5076280;28;20003;-69
2022/05/03 07:55:02;;;;;;;;;;;11.30;71.80;;;;;;5079573;28;19950;-69
2022/05/03 07:57:27;;;;;;;;;;;11.30;71.70;;;;;;5080072;28;19916;-69
2022/05/03 07:59:54;;;;;;;;;;;11.30;71.70;;;;;;5076338;28;20003;-69
2022/05/03 08:02:20;;;;;;;;;;;11.30;71.60;;;;;;5085365;28;19923;-69
2022/05/03 08:04:46;;;;;;;;;;;11.40;71.60;;;;;;5075842;28;19951;-69
2022/05/03 08:07:12;;;;;;;;;;;11.40;71.50;;;;;;5080676;28;19955;-69
2022/05/03 08:09:37;;;;;;;;;;;11.40;71.50;;;;;;5085086;28;19913;-69
2022/05/03 08:12:03;;;;;;;;;;;11.50;71.40;;;;;;5085027;28;20376;-69
2022/05/03 08:14:29;;;;;;;;;;;11.50;71.30;;;;;;5079343;28;19916;-69
2022/05/03 08:16:55;;;;;;;;;;;11.50;71.20;;;;;;5079071;28;19908;-69
2022/05/03 08:19:21;;;;;;;;;;;11.50;71.10;;;;;;5078544;28;19916;-69
2022/05/03 08:21:47;;;;;;;;;;;11.60;71.20;;;;;;5075805;28;19948;-69
2022/05/03 08:24:12;;;;;;;;;;;11.60;71.00;;;;;;5081068;28;19959;-69
2022/05/03 08:26:38;;;;;;;;;;;11.60;70.90;;;;;;5073520;28;19978;-69
2022/05/03 08:29:03;;;;;;;;;;;11.60;70.80;;;;;;5081686;28;19916;-69
2022/05/03 08:31:29;;;;;;;;;;;11.60;70.40;;;;;;5072927;28;19927;-69
2022/05/03 08:33:54;;;;;;;;;;;11.60;70.60;;;;;;5081518;28;20541;-69
2022/05/03 08:36:19;;;;;;;;;;;11.70;70.70;;;;;;5078015;28;19909;-69
2022/05/03 08:44:13;;;;;;;;;;;11.70;70.30;;;;;;5082060;28;19919;-69
2022/05/03 08:46:39;;;;;;;;;;;11.80;70.40;;;;;;5083821;28;19940;-69
2022/05/03 08:49:05;;;;;;;;;;;11.90;70.20;;;;;;5082338;28;20605;-69
2022/05/03 08:51:31;;;;;;;;;;;11.90;70.10;;;;;;5082679;28;19959;-69
2022/05/03 08:53:58;;;;;;;;;;;11.90;69.90;;;;;;5080136;28;19917;-69
2022/05/03 08:56:24;;;;;;;;;;;11.90;69.70;;;;;;5075290;28;20311;-69
2022/05/03 08:58:51;;;;;;;;;;;12.00;69.70;;;;;;5072364;28;19913;-69
2022/05/03 09:01:18;;;;;;;;;;;12.00;69.70;;;;;;5077319;28;19916;-69
2022/05/03 09:03:44;;;;;;;;;;;12.00;69.30;;;;;;5075720;28;19937;-69
2022/05/03 09:06:09;;;;;;;;;;;12.10;69.30;;;;;;5073924;28;19916;-69
2022/05/03 09:08:35;;;;;;;;;;;12.10;69.10;;;;;;5075346;28;19920;-69
2022/05/03 09:11:11;;;;;;;;;;;12.20;69.00;;;;;;5076245;28;19912;-69
2022/05/03 09:13:37;;;;;;;;;;;12.20;68.70;;;;;;5068491;28;20314;-69
2022/05/03 09:16:10;;;;;;;;;;;12.30;68.80;;;;;;5082764;28;19908;-69
2022/05/03 09:18:35;;;;;;;;;;;12.30;68.70;;;;;;5074608;28;20065;-69
2022/05/03 09:26:14;;;;;;;;;;;12.40;68.50;;;;;;5081913;28;19907;-69
2022/05/03 09:28:45;;;;;;;;;;;12.40;68.40;;;;;;5074514;28;19916;-69
2022/05/03 09:31:10;;;;;;;;;;;12.50;68.30;;;;;;5084388;28;19912;-69
2022/05/03 09:33:37;;;;;;;;;;;12.50;68.10;;;;;;5077585;28;19926;-69
2022/05/03 09:36:12;;;;;;;;;;;12.60;68.10;;;;;;5085407;28;19924;-69
2022/05/03 09:38:45;;;;;;;;;;;12.60;67.80;;;;;;5074158;28;20544;-69
2022/05/03 09:41:12;;;;;;;;;;;12.70;67.90;;;;;;5076536;28;19962;-69
2022/05/03 09:43:37;;;;;;;;;;;12.70;67.70;;;;;;5072669;28;19916;-69
2022/05/03 09:46:03;;;;;;;;;;;12.80;67.70;;;;;;5077005;28;19930;-69
2022/05/03 09:48:49;;;;;;;;;;;12.80;67.30;;;;;;5079374;28;19940;-69
2022/05/03 09:51:15;;;;;;;;;;;12.90;67.00;;;;;;5074376;28;19927;-69
2022/05/03 09:53:41;;;;;;;;;;;12.90;67.10;;;;;;5078552;28;19912;-69
2022/05/03 09:56:11;;;;;;;;;;;13.00;67.10;;;;;;5071045;28;19928;-69
2022/05/03 09:58:38;;;;;;;;;;;13.00;67.00;;;;;;5075199;28;20355;-69
2022/05/03 10:01:04;;;;;;;;;;;13.00;66.70;;;;;;5074814;28;19946;-69
2022/05/03 10:03:29;;;;;;;;;;;13.10;66.70;;;;;;5078563;28;19916;-69
2022/05/03 10:05:56;;;;;;;;;;;13.10;66.40;;;;;;5080240;28;19916;-69
2022/05/03 10:08:22;;;;;;;;;;;13.20;66.30;;;;;;5085811;28;20655;-69
2022/05/03 10:10:56;;;;;;;;;;;13.20;66.20;;;;;;5073573;28;19922;-69
2022/05/03 10:13:21;;;;;;;;;;;13.30;66.20;;;;;;5080303;28;19947;-69
2022/05/03 10:21:29;;;;;;;;;;;13.50;66.00;;;;;;5083379;28;20000;-69
2022/05/03 10:24:26;;;;;;;;;;;13.60;65.90;;;;;;5077193;28;19977;-69
2022/05/03 10:26:58;;;;;;;;;;;13.60;66.00;;;;;;5068845;28;20353;-69
2022/05/03 10:29:25;;;;;;;;;;;13.70;66.00;;;;;;5079022;28;19924;-69
2022/05/03 10:32:02;;;;;;;;;;;13.80;65.80;;;;;;5070536;28;19947;-69
2022/05/03 10:34:48;;;;;;;;;;;13.80;66.00;;;;;;5088277;28;19919;-69
2022/05/03 10:37:20;;;;;;;;;;;13.90;66.00;;;;;;5080246;28;19943;-69
2022/05/03 10:39:46;;;;;;;;;;;14.00;66.00;;;;;;5083746;28;19967;-69
2022/05/03 10:42:13;;;;;;;;;;;14.10;66.20;;;;;;5074401;28;20624;-69
2022/05/03 10:44:41;;;;;;;;;;;14.20;66.20;;;;;;5081587;28;19908;-69
2022/05/03 10:47:06;;;;;;;;;;;14.30;66.60;;;;;;5079466;28;19916;-68
2022/05/03 10:49:32;;;;;;;;;;;14.40;66.40;;;;;;5085716;28;20422;-69
2022/05/03 10:51:57;;;;;;;;;;;14.50;65.40;;;;;;5083920;28;19943;-69
2022/05/03 10:54:23;;;;;;;;;;;14.60;66.60;;;;;;5085302;28;20548;-69
2022/05/03 10:57:04;;;;;;;;;;;14.70;66.40;;;;;;5080905;28;19912;-69
2022/05/03 10:59:46;;;;;;;;;;;14.80;66.60;;;;;;5081327;28;19927;-69
2022/05/03 11:02:11;;;;;;;;;;;15.00;66.50;;;;;;5075400;28;20015;-69
2022/05/03 11:04:56;;;;;;;;;;;15.10;66.30;;;;;;5078493;28;19957;-69
2022/05/03 11:07:22;;;;;;;;;;;15.20;66.30;;;;;;5075922;28;19924;-68
2022/05/03 11:09:48;;;;;;;;;;;15.40;66.00;;;;;;5081580;28;20029;-68
2022/05/03 11:12:13;;;;;;;;;;;15.50;66.10;;;;;;5085516;28;20011;-68
2022/05/03 11:14:43;;;;;;;;;;;15.60;66.20;;;;;;5071289;28;19962;-69
2022/05/03 11:17:09;;;;;;;;;;;15.70;66.10;;;;;;5082265;28;19923;-69
2022/05/03 11:19:35;;;;;;;;;;;15.80;66.00;;;;;;5085037;28;19912;-69
2022/05/03 11:22:00;;;;;;;;;;;15.90;66.00;;;;;;5079327;28;20020;-68
2022/05/03 11:24:26;;;;;;;;;;;16.10;65.90;;;;;;5085770;28;20010;-69
2022/05/03 11:26:55;;;;;;;;;;;16.20;65.60;;;;;;5079970;28;19961;-69
2022/05/03 11:29:26;;;;;;;;;;;16.30;65.50;;;;;;5077205;28;20678;-69
2022/05/03 11:31:52;;;;;;;;;;;16.40;65.60;;;;;;5079336;28;19912;-69
2022/05/03 11:34:18;;;;;;;;;;;16.40;65.80;;;;;;5076808;28;19916;-69
2022/05/03 11:36:46;;;;;;;;;;;16.50;65.70;;;;;;5085037;28;19931;-69
2022/05/03 11:39:13;;;;;;;;;;;16.60;65.40;;;;;;5071078;28;19998;-69
2022/05/03 11:41:39;;;;;;;;;;;16.70;65.80;;;;;;5081620;28;19912;-69
2022/05/03 11:44:04;;;;;;;;;;;16.70;65.30;;;;;;5075820;28;19935;-69
2022/05/03 11:46:30;;;;;;;;;;;16.80;65.00;;;;;;5078870;28;19917;-69
2022/05/03 11:49:01;;;;;;;;;;;16.90;65.20;;;;;;5078048;28;19917;-69
2022/05/03 11:57:07;;;;;;;;;;;17.10;65.60;;;;;;5082438;28;19926;-69
2022/05/03 11:59:33;;;;;;;;;;;17.20;65.40;;;;;;5076098;28;20257;-69
2022/05/03 12:02:31;;;;;;;;;;;17.30;65.40;;;;;;5084010;28;20109;-69
2022/05/03 12:04:59;;;;;;;;;;;17.40;65.40;;;;;;5078736;28;19916;-69
2022/05/03 12:07:25;;;;;;;;;;;17.50;65.50;;;;;;5076349;28;19916;-69
2022/05/03 12:09:50;;;;;;;;;;;17.50;65.40;;;;;;5072352;28;19912;-69
2022/05/03 12:12:43;;;;;;;;;;;17.60;65.10;;;;;;5084049;28;19951;-69
2022/05/03 12:15:11;;;;;;;;;;;17.70;65.50;;;;;;5074947;28;19966;-69
2022/05/03 12:17:55;;;;;;;;;;;17.80;65.70;;;;;;5077757;28;19924;-69
2022/05/03 12:20:21;;;;;;;;;;;17.80;65.50;;;;;;5076386;28;19920;-69
2022/05/03 12:23:08;;;;;;;;;;;17.90;65.70;;;;;;5073426;28;20535;-69
2022/05/03 12:25:34;;;;;;;;;;;17.90;65.50;;;;;;5065565;28;20014;-69
2022/05/03 12:28:03;;;;;;;;;;;18.00;65.70;;;;;;5080649;28;19951;-69
2022/05/03 12:30:28;;;;;;;;;;;18.00;65.20;;;;;;5076708;28;20276;-69
2022/05/03 12:32:54;;;;;;;;;;;18.10;65.60;;;;;;5072545;28;19925;-69
2022/05/03 12:35:27;;;;;;;;;;;18.10;65.40;;;;;;5078520;28;19912;-69
2022/05/03 12:37:53;;;;;;;;;;;18.20;65.50;;;;;;5070674;28;19924;-69
2022/05/03 12:40:26;;;;;;;;;;;18.30;65.40;;;;;;5070815;28;19921;-69
2022/05/03 12:42:51;;;;;;;;;;;18.40;65.40;;;;;;5079702;28;19927;-69
2022/05/03 12:45:19;;;;;;;;;;;18.40;64.70;;;;;;5075922;28;20555;-69
2022/05/03 12:47:46;;;;;;;;;;;18.50;65.10;;;;;;5080933;28;19916;-69
2022/05/03 12:50:12;;;;;;;;;;;18.50;65.40;;;;;;5082085;28;20438;-69
2022/05/03 12:52:38;;;;;;;;;;;18.60;65.50;;;;;;5077417;28;20333;-69
2022/05/03 12:55:04;;;;;;;;;;;18.70;65.60;;;;;;5082123;28;19988;-69
2022/05/03 13:00:14;;;;;;;;;;;18.70;65.30;;;;;;5081752;28;19921;-69
2022/05/03 13:02:40;;;;;;;;;;;18.80;65.20;;;;;;5073189;28;19924;-69
2022/05/03 13:05:05;;;;;;;;;;;18.90;65.10;;;;;;5076614;28;19912;-69
2022/05/03 13:07:31;;;;;;;;;;;18.90;65.00;;;;;;5076547;28;19920;-69
2022/05/03 13:09:56;;;;;;;;;;;19.00;64.90;;;;;;5072482;28;19920;-69
2022/05/03 13:12:22;;;;;;;;;;;19.10;65.40;;;;;;5072734;28;19952;-69
2022/05/03 13:14:48;;;;;;;;;;;19.20;65.20;;;;;;5076992;28;19942;-69
2022/05/03 13:17:14;;;;;;;;;;;19.20;65.20;;;;;;5077444;28;19991;-69
2022/05/03 13:19:40;;;;;;;;;;;19.30;65.30;;;;;;5077367;28;20559;-69
2022/05/03 13:22:05;;;;;;;;;;;19.30;65.20;;;;;;5082499;28;19912;-69
2022/05/03 13:24:31;;;;;;;;;;;19.30;65.00;;;;;;5073199;28;19985;-69
2022/05/03 13:26:58;;;;;;;;;;;19.40;65.00;;;;;;5085045;28;19916;-71
2022/05/03 13:29:23;;;;;;;;;;;19.40;65.10;;;;;;5081060;28;20000;-69
2022/05/03 13:31:50;;;;;;;;;;;19.50;64.50;;;;;;5079096;28;20496;-69
2022/05/03 13:34:15;;;;;;;;;;;19.50;64.10;;;;;;5081466;28;20272;-70
2022/05/03 13:42:10;;;;;;;;;;;19.70;65.00;;;;;;5080093;28;20463;-71
2022/05/03 13:44:36;;;;;;;;;;;19.70;64.80;;;;;;5074102;28;20023;-71
2022/05/03 13:47:03;;;;;;;;;;;19.80;65.00;;;;;;5073912;28;19916;-71
2022/05/03 13:49:28;;;;;;;;;;;19.80;64.50;;;;;;5078993;28;19921;-71
2022/05/03 13:51:54;;;;;;;;;;;19.80;63.20;;;;;;5077662;28;19923;-71
2022/05/03 13:54:19;;;;;;;;;;;19.80;64.60;;;;;;5070930;28;20440;-70
2022/05/03 13:56:45;;;;;;;;;;;20.00;63.40;;;;;;5076405;28;19961;-70
2022/05/03 13:59:11;;;;;;;;;;;19.90;63.20;;;;;;5071980;28;19916;-71
2022/05/03 14:01:38;;;;;;;;;;;20.00;63.10;;;;;;5076556;28;19915;-69
2022/05/03 14:04:03;;;;;;;;;;;20.00;60.50;;;;;;5068124;28;19908;-71
2022/05/03 14:06:29;;;;;;;;;;;19.90;62.00;;;;;;5079464;28;19916;-70
2022/05/03 14:08:55;;;;;;;;;;;20.00;61.90;;;;;;5081593;28;19912;-71
2022/05/03 14:11:20;;;;;;;;;;;20.00;61.90;;;;;;5077131;28;19939;-70
2022/05/03 14:13:46;;;;;;;;;;;20.00;60.90;;;;;;5074594;28;19964;-73
2022/05/03 14:16:12;;;;;;;;;;;20.10;59.20;;;;;;5076490;28;19923;-70
2022/05/03 14:18:38;;;;;;;;;;;20.10;60.50;;;;;;5072064;28;20019;-71
2022/05/03 14:21:04;;;;;;;;;;;20.20;61.20;;;;;;5075228;28;19939;-71
2022/05/03 14:23:29;;;;;;;;;;;20.20;60.40;;;;;;5075801;28;19959;-70
2022/05/03 14:25:55;;;;;;;;;;;20.40;60.00;;;;;;5080844;28;19947;-71
2022/05/03 14:28:20;;;;;;;;;;;20.40;59.50;;;;;;5077532;28;19917;-72
2022/05/03 14:30:46;;;;;;;;;;;20.50;59.20;;;;;;5073813;28;20367;-70
2022/05/03 14:33:15;;;;;;;;;;;20.50;58.70;;;;;;5073284;28;19923;-71
2022/05/03 14:35:41;;;;;;;;;;;20.70;55.20;;;;;;5072595;28;20500;-72
2022/05/03 14:38:06;;;;;;;;;;;20.90;53.20;;;;;;5081251;28;19920;-71
2022/05/03 14:40:32;;;;;;;;;;;21.00;53.20;;;;;;5075972;28;19922;-73
2022/05/03 14:43:01;;;;;;;;;;;21.10;55.10;;;;;;5078083;28;20574;-71
2022/05/03 14:45:26;;;;;;;;;;;21.00;51.90;;;;;;5077460;28;19970;-71
2022/05/03 14:47:52;;;;;;;;;;;21.10;53.70;;;;;;5077162;28;19916;-71
2022/05/03 14:50:18;;;;;;;;;;;21.20;52.60;;;;;;5076491;28;19921;-69
2022/05/03 14:52:43;;;;;;;;;;;21.20;52.10;;;;;;5077151;28;19920;-71
2022/05/03 14:55:09;;;;;;;;;;;21.30;51.00;;;;;;5079323;28;19920;-72
2022/05/03 15:03:03;;;;;;;;;;;21.60;50.00;;;;;;5082029;28;19994;-73
2022/05/03 15:05:33;;;;;;;;;;;21.60;51.30;;;;;;5076710;28;19919;-70
2022/05/03 15:07:59;;;;;;;;;;;21.70;49.00;;;;;;5088771;28;20301;-71
2022/05/03 15:10:25;;;;;;;;;;;21.90;48.50;;;;;;5072832;28;19912;-71